GWPNS EGJB-EGJJ
Flight info
| Callsign | GWPNS |
|---|---|
| Flight time | 0h 12m |
| Altitude | 4000 |
| Route | DCT CHUBB DCT ABDUS/N0138F030 DCT GIPTA DCT |
| Aircraft | BN2P/L-SFG/C |
Departure
| Time | 2026-04-26 19:54 |
|---|---|
| Airport | Guernsey Airport (EGJB) |
Arrival
| Time | 2026-04-26 20:06 |
|---|---|
| Airport | Jersey Airport (EGJJ) |
| Time | Latitude | Longitude | Altitude | Speed | Heading |
|---|---|---|---|---|---|
| 2026-04-26 19:29 | 49.43228 | -2.59874 | 341 ft | 0 kts | 37° |
| 2026-04-26 19:46 | 49.43239 | -2.59901 | 339 ft | 7 kts | 272° |
| 2026-04-26 19:47 | 49.43303 | -2.59929 | 341 ft | 15 kts | 356° |
| 2026-04-26 19:47 | 49.43321 | -2.59931 | 341 ft | 0 kts | 358° |
| 2026-04-26 19:47 | 49.43342 | -2.60001 | 341 ft | 13 kts | 265° |
| 2026-04-26 19:47 | 49.43336 | -2.60172 | 337 ft | 19 kts | 268° |
| 2026-04-26 19:48 | 49.43332 | -2.60338 | 333 ft | 3 kts | 266° |
| 2026-04-26 19:48 | 49.43330 | -2.60384 | 332 ft | 11 kts | 267° |
| 2026-04-26 19:48 | 49.43326 | -2.60583 | 327 ft | 23 kts | 274° |
| 2026-04-26 19:48 | 49.43356 | -2.60848 | 321 ft | 25 kts | 280° |
| 2026-04-26 19:49 | 49.43361 | -2.61117 | 315 ft | 21 kts | 268° |
| 2026-04-26 19:49 | 49.43359 | -2.61243 | 312 ft | 0 kts | 281° |
| 2026-04-26 19:52 | 49.43362 | -2.61254 | 311 ft | 0 kts | 300° |
| 2026-04-26 19:52 | 49.43401 | -2.61331 | 310 ft | 23 kts | 320° |
| 2026-04-26 19:52 | 49.43465 | -2.61315 | 310 ft | 14 kts | 76° |
| 2026-04-26 19:53 | 49.43479 | -2.60894 | 319 ft | 67 kts | 87° |
| 2026-04-26 19:53 | 49.43508 | -2.59982 | 425 ft | 99 kts | 86° |
| 2026-04-26 19:53 | 49.43531 | -2.58849 | 655 ft | 112 kts | 86° |
| 2026-04-26 19:53 | 49.43543 | -2.57820 | 888 ft | 118 kts | 87° |
| 2026-04-26 19:54 | 49.43568 | -2.56564 | 1209 ft | 119 kts | 87° |
| 2026-04-26 19:54 | 49.43593 | -2.55330 | 1443 ft | 124 kts | 87° |
| 2026-04-26 19:54 | 49.43612 | -2.54372 | 1541 ft | 132 kts | 88° |
| 2026-04-26 19:54 | 49.43599 | -2.52922 | 1689 ft | 139 kts | 99° |
| 2026-04-26 19:55 | 49.43008 | -2.51776 | 1874 ft | 145 kts | 151° |
| 2026-04-26 19:55 | 49.42019 | -2.51540 | 2127 ft | 143 kts | 173° |
| 2026-04-26 19:55 | 49.41028 | -2.51408 | 2374 ft | 142 kts | 172° |
| 2026-04-26 19:55 | 49.40043 | -2.51247 | 2628 ft | 142 kts | 171° |
| 2026-04-26 19:56 | 49.39061 | -2.51068 | 2882 ft | 142 kts | 172° |
| 2026-04-26 19:56 | 49.38410 | -2.50942 | 3044 ft | 143 kts | 171° |
| 2026-04-26 19:56 | 49.37044 | -2.50668 | 3143 ft | 158 kts | 171° |
| 2026-04-26 19:56 | 49.35920 | -2.50437 | 3128 ft | 167 kts | 172° |
| 2026-04-26 19:57 | 49.34746 | -2.50195 | 3095 ft | 173 kts | 172° |
| 2026-04-26 19:57 | 49.33544 | -2.49985 | 3056 ft | 175 kts | 173° |
| 2026-04-26 19:57 | 49.32323 | -2.49801 | 3010 ft | 177 kts | 173° |
| 2026-04-26 19:57 | 49.31073 | -2.49635 | 2804 ft | 182 kts | 174° |
| 2026-04-26 19:58 | 49.30236 | -2.49537 | 2627 ft | 182 kts | 174° |
| 2026-04-26 19:58 | 49.28975 | -2.49407 | 2384 ft | 181 kts | 174° |
| 2026-04-26 19:58 | 49.27720 | -2.49298 | 2134 ft | 181 kts | 174° |
| 2026-04-26 19:58 | 49.26095 | -2.49351 | 2011 ft | 170 kts | 182° |
| 2026-04-26 19:59 | 49.24940 | -2.49378 | 2008 ft | 161 kts | 169° |
| 2026-04-26 19:59 | 49.23896 | -2.48910 | 2018 ft | 154 kts | 156° |
| 2026-04-26 19:59 | 49.23227 | -2.48512 | 2016 ft | 152 kts | 155° |
| 2026-04-26 19:59 | 49.22248 | -2.47937 | 2023 ft | 150 kts | 156° |
| 2026-04-26 20:00 | 49.21288 | -2.47385 | 2014 ft | 149 kts | 156° |
| 2026-04-26 20:00 | 49.20325 | -2.46830 | 2015 ft | 147 kts | 156° |
| 2026-04-26 20:00 | 49.19424 | -2.46117 | 2018 ft | 148 kts | 136° |
| 2026-04-26 20:00 | 49.18861 | -2.44813 | 2023 ft | 148 kts | 108° |
| 2026-04-26 20:01 | 49.18786 | -2.43241 | 2032 ft | 149 kts | 83° |
| 2026-04-26 20:01 | 49.18936 | -2.41689 | 2028 ft | 146 kts | 83° |
| 2026-04-26 20:01 | 49.19065 | -2.40165 | 2024 ft | 145 kts | 83° |
| 2026-04-26 20:01 | 49.19193 | -2.38629 | 2015 ft | 145 kts | 84° |
| 2026-04-26 20:02 | 49.19322 | -2.37108 | 2032 ft | 144 kts | 83° |
| 2026-04-26 20:02 | 49.19450 | -2.35600 | 2028 ft | 144 kts | 83° |
| 2026-04-26 20:02 | 49.19578 | -2.34093 | 2024 ft | 137 kts | 83° |
| 2026-04-26 20:02 | 49.19658 | -2.33177 | 1922 ft | 123 kts | 83° |
| 2026-04-26 20:03 | 49.19807 | -2.31538 | 1675 ft | 112 kts | 82° |
| 2026-04-26 20:03 | 49.19909 | -2.30351 | 1457 ft | 113 kts | 82° |
| 2026-04-26 20:03 | 49.19950 | -2.29828 | 1365 ft | 109 kts | 83° |
| 2026-04-26 20:03 | 49.20008 | -2.29022 | 1204 ft | 112 kts | 84° |
| 2026-04-26 20:04 | 49.20089 | -2.27873 | 1002 ft | 106 kts | 82° |
| 2026-04-26 20:04 | 49.20178 | -2.26825 | 883 ft | 95 kts | 82° |
| 2026-04-26 20:04 | 49.20276 | -2.25692 | 941 ft | 111 kts | 82° |
| 2026-04-26 20:04 | 49.20375 | -2.24626 | 904 ft | 106 kts | 81° |
| 2026-04-26 20:05 | 49.20481 | -2.23319 | 688 ft | 137 kts | 83° |
| 2026-04-26 20:05 | 49.20586 | -2.21930 | 493 ft | 124 kts | 81° |
| 2026-04-26 20:05 | 49.20700 | -2.20698 | 321 ft | 110 kts | 81° |
| 2026-04-26 20:05 | 49.20787 | -2.19634 | 283 ft | 77 kts | 81° |
| 2026-04-26 20:06 | 49.20817 | -2.19332 | 282 ft | 32 kts | 83° |
| 2026-04-26 20:06 | 49.20786 | -2.19002 | 281 ft | 31 kts | 111° |
| 2026-04-26 20:06 | 49.20759 | -2.18902 | 281 ft | 0 kts | 114° |
| 2026-04-26 20:06 | 49.20734 | -2.18849 | 280 ft | 8 kts | 158° |
| 2026-04-26 20:07 | 49.20693 | -2.19007 | 280 ft | 28 kts | 262° |
| 2026-04-26 20:07 | 49.20700 | -2.19309 | 280 ft | 29 kts | 285° |
| 2026-04-26 20:07 | 49.20679 | -2.19618 | 280 ft | 30 kts | 238° |
| 2026-04-26 20:07 | 49.20611 | -2.19782 | 280 ft | 18 kts | 265° |
| 2026-04-26 20:08 | 49.20567 | -2.19937 | 280 ft | 13 kts | 170° |
| 2026-04-26 20:08 | 49.20443 | -2.19914 | 280 ft | 16 kts | 159° |
| 2026-04-26 20:08 | 49.20456 | -2.19837 | 280 ft | 12 kts | 346° |
| 2026-04-26 20:08 | 49.20491 | -2.19855 | 280 ft | 4 kts | 40° |
| 2026-04-26 20:09 | 49.20493 | -2.19846 | 280 ft | 0 kts | 103° |